sensor_id;sensor_type;location;lat;lon;timestamp;P1;durP1;ratioP1;P2;durP2;ratioP2
33593;SDS011;19920;52.242;20.940;2023-03-24T00:00:02;7.60;;;5.00;;
33593;SDS011;19920;52.242;20.940;2023-03-24T00:02:32;11.35;;;5.63;;
33593;SDS011;19920;52.242;20.940;2023-03-24T00:05:01;9.88;;;5.25;;
33593;SDS011;19920;52.242;20.940;2023-03-24T00:07:28;8.82;;;5.35;;
33593;SDS011;19920;52.242;20.940;2023-03-24T00:09:54;10.40;;;5.45;;
33593;SDS011;19920;52.242;20.940;2023-03-24T00:12:20;9.68;;;5.13;;
33593;SDS011;19920;52.242;20.940;2023-03-24T00:14:46;14.88;;;5.78;;
33593;SDS011;19920;52.242;20.940;2023-03-24T00:17:12;11.18;;;6.22;;
33593;SDS011;19920;52.242;20.940;2023-03-24T00:19:38;12.52;;;6.07;;
33593;SDS011;19920;52.242;20.940;2023-03-24T00:22:07;11.10;;;6.05;;
33593;SDS011;19920;52.242;20.940;2023-03-24T00:24:38;11.48;;;6.40;;
33593;SDS011;19920;52.242;20.940;2023-03-24T00:27:10;8.70;;;6.10;;
33593;SDS011;19920;52.242;20.940;2023-03-24T00:29:37;11.40;;;6.43;;
33593;SDS011;19920;52.242;20.940;2023-03-24T00:32:04;14.55;;;6.07;;
33593;SDS011;19920;52.242;20.940;2023-03-24T00:34:30;8.93;;;6.05;;
33593;SDS011;19920;52.242;20.940;2023-03-24T00:36:56;9.57;;;6.05;;
33593;SDS011;19920;52.242;20.940;2023-03-24T00:39:21;10.05;;;5.88;;
33593;SDS011;19920;52.242;20.940;2023-03-24T00:41:47;10.82;;;6.50;;
33593;SDS011;19920;52.242;20.940;2023-03-24T00:44:15;9.70;;;5.85;;
33593;SDS011;19920;52.242;20.940;2023-03-24T00:46:45;8.90;;;5.70;;
33593;SDS011;19920;52.242;20.940;2023-03-24T00:49:21;9.13;;;5.75;;
33593;SDS011;19920;52.242;20.940;2023-03-24T00:52:07;11.90;;;5.90;;
33593;SDS011;19920;52.242;20.940;2023-03-24T00:54:38;9.90;;;5.90;;
33593;SDS011;19920;52.242;20.940;2023-03-24T00:57:05;8.25;;;5.88;;
33593;SDS011;19920;52.242;20.940;2023-03-24T00:59:31;10.10;;;6.00;;
33593;SDS011;19920;52.242;20.940;2023-03-24T01:02:02;10.25;;;6.20;;
33593;SDS011;19920;52.242;20.940;2023-03-24T01:04:28;8.30;;;5.97;;
33593;SDS011;19920;52.242;20.940;2023-03-24T01:06:54;10.57;;;6.07;;
33593;SDS011;19920;52.242;20.940;2023-03-24T01:09:22;10.93;;;6.25;;
33593;SDS011;19920;52.242;20.940;2023-03-24T01:11:48;9.23;;;6.05;;
33593;SDS011;19920;52.242;20.940;2023-03-24T01:14:14;10.88;;;6.00;;
33593;SDS011;19920;52.242;20.940;2023-03-24T01:16:40;11.38;;;6.53;;
33593;SDS011;19920;52.242;20.940;2023-03-24T01:19:06;9.77;;;6.07;;
33593;SDS011;19920;52.242;20.940;2023-03-24T01:21:36;11.07;;;5.82;;
33593;SDS011;19920;52.242;20.940;2023-03-24T01:24:02;12.77;;;5.40;;
33593;SDS011;19920;52.242;20.940;2023-03-24T01:26:29;11.35;;;6.22;;
33593;SDS011;19920;52.242;20.940;2023-03-24T01:28:54;9.35;;;5.50;;
33593;SDS011;19920;52.242;20.940;2023-03-24T01:31:20;10.82;;;5.90;;
33593;SDS011;19920;52.242;20.940;2023-03-24T01:33:46;9.38;;;5.43;;
33593;SDS011;19920;52.242;20.940;2023-03-24T01:36:12;11.23;;;5.72;;
33593;SDS011;19920;52.242;20.940;2023-03-24T01:38:37;11.38;;;5.45;;
33593;SDS011;19920;52.242;20.940;2023-03-24T01:41:04;8.73;;;5.60;;
33593;SDS011;19920;52.242;20.940;2023-03-24T01:43:31;9.27;;;5.50;;
33593;SDS011;19920;52.242;20.940;2023-03-24T01:51:16;11.13;;;5.20;;
33593;SDS011;19920;52.242;20.940;2023-03-24T01:53:50;9.25;;;5.43;;
33593;SDS011;19920;52.242;20.940;2023-03-24T01:56:23;8.73;;;5.05;;
33593;SDS011;19920;52.242;20.940;2023-03-24T01:58:51;8.85;;;5.05;;
33593;SDS011;19920;52.242;20.940;2023-03-24T02:01:22;10.20;;;5.40;;
33593;SDS011;19920;52.242;20.940;2023-03-24T02:03:50;7.55;;;5.55;;
33593;SDS011;19920;52.242;20.940;2023-03-24T02:06:17;8.77;;;5.30;;
33593;SDS011;19920;52.242;20.940;2023-03-24T02:11:16;8.48;;;6.22;;
33593;SDS011;19920;52.242;20.940;2023-03-24T02:13:42;12.20;;;6.32;;
33593;SDS011;19920;52.242;20.940;2023-03-24T02:16:13;8.75;;;5.70;;
33593;SDS011;19920;52.242;20.940;2023-03-24T02:18:50;7.60;;;5.03;;
33593;SDS011;19920;52.242;20.940;2023-03-24T02:24:13;8.35;;;5.28;;
33593;SDS011;19920;52.242;20.940;2023-03-24T02:28:06;10.02;;;5.82;;
33593;SDS011;19920;52.242;20.940;2023-03-24T02:38:41;7.93;;;5.43;;
33593;SDS011;19920;52.242;20.940;2023-03-24T02:42:00;9.52;;;5.80;;
33593;SDS011;19920;52.242;20.940;2023-03-24T02:46:48;8.00;;;5.65;;
33593;SDS011;19920;52.242;20.940;2023-03-24T02:52:03;7.97;;;5.30;;
33593;SDS011;19920;52.242;20.940;2023-03-24T02:57:54;9.02;;;5.63;;
33593;SDS011;19920;52.242;20.940;2023-03-24T03:00:30;9.75;;;5.75;;
33593;SDS011;19920;52.242;20.940;2023-03-24T03:03:27;7.50;;;5.80;;
33593;SDS011;19920;52.242;20.940;2023-03-24T03:06:00;11.40;;;6.78;;
33593;SDS011;19920;52.242;20.940;2023-03-24T03:08:37;14.33;;;7.03;;
33593;SDS011;19920;52.242;20.940;2023-03-24T03:11:05;10.23;;;6.28;;
33593;SDS011;19920;52.242;20.940;2023-03-24T03:13:37;10.97;;;6.33;;
33593;SDS011;19920;52.242;20.940;2023-03-24T03:16:14;10.65;;;5.70;;
33593;SDS011;19920;52.242;20.940;2023-03-24T03:18:56;9.95;;;6.15;;
33593;SDS011;19920;52.242;20.940;2023-03-24T03:21:25;15.68;;;6.60;;
33593;SDS011;19920;52.242;20.940;2023-03-24T03:23:57;12.25;;;6.10;;
33593;SDS011;19920;52.242;20.940;2023-03-24T03:26:26;9.18;;;6.18;;
33593;SDS011;19920;52.242;20.940;2023-03-24T03:28:57;9.70;;;6.03;;
33593;SDS011;19920;52.242;20.940;2023-03-24T03:31:33;11.75;;;5.95;;
33593;SDS011;19920;52.242;20.940;2023-03-24T03:36:51;10.55;;;6.30;;
33593;SDS011;19920;52.242;20.940;2023-03-24T03:39:28;9.95;;;5.38;;
33593;SDS011;19920;52.242;20.940;2023-03-24T03:41:57;8.00;;;5.05;;
33593;SDS011;19920;52.242;20.940;2023-03-24T03:44:23;8.27;;;5.57;;
33593;SDS011;19920;52.242;20.940;2023-03-24T03:46:50;8.25;;;5.18;;
33593;SDS011;19920;52.242;20.940;2023-03-24T03:49:16;7.65;;;4.70;;
33593;SDS011;19920;52.242;20.940;2023-03-24T03:51:42;8.65;;;5.80;;
33593;SDS011;19920;52.242;20.940;2023-03-24T03:54:09;8.30;;;5.10;;
33593;SDS011;19920;52.242;20.940;2023-03-24T03:56:37;8.75;;;5.43;;
33593;SDS011;19920;52.242;20.940;2023-03-24T03:59:04;9.25;;;5.22;;
33593;SDS011;19920;52.242;20.940;2023-03-24T04:01:31;9.05;;;5.32;;
33593;SDS011;19920;52.242;20.940;2023-03-24T04:06:40;12.75;;;6.13;;
33593;SDS011;19920;52.242;20.940;2023-03-24T04:09:34;9.82;;;5.50;;
33593;SDS011;19920;52.242;20.940;2023-03-24T04:25:47;11.25;;;5.82;;
33593;SDS011;19920;52.242;20.940;2023-03-24T04:29:03;11.27;;;6.28;;
33593;SDS011;19920;52.242;20.940;2023-03-24T04:31:24;9.05;;;5.75;;
33593;SDS011;19920;52.242;20.940;2023-03-24T04:33:59;14.07;;;6.18;;
33593;SDS011;19920;52.242;20.940;2023-03-24T04:36:35;10.52;;;6.55;;
33593;SDS011;19920;52.242;20.940;2023-03-24T04:39:07;11.13;;;5.90;;
33593;SDS011;19920;52.242;20.940;2023-03-24T04:41:37;9.32;;;5.75;;
33593;SDS011;19920;52.242;20.940;2023-03-24T04:44:04;10.68;;;6.05;;
33593;SDS011;19920;52.242;20.940;2023-03-24T04:46:31;13.13;;;5.60;;
33593;SDS011;19920;52.242;20.940;2023-03-24T04:48:57;14.50;;;6.25;;
33593;SDS011;19920;52.242;20.940;2023-03-24T04:51:23;10.10;;;5.50;;
33593;SDS011;19920;52.242;20.940;2023-03-24T04:53:51;12.23;;;5.68;;
33593;SDS011;19920;52.242;20.940;2023-03-24T04:58:48;11.57;;;5.93;;
33593;SDS011;19920;52.242;20.940;2023-03-24T05:01:14;10.98;;;5.35;;
33593;SDS011;19920;52.242;20.940;2023-03-24T05:03:41;9.20;;;5.70;;
33593;SDS011;19920;52.242;20.940;2023-03-24T05:06:10;12.90;;;6.35;;
33593;SDS011;19920;52.242;20.940;2023-03-24T05:08:36;12.05;;;6.10;;
33593;SDS011;19920;52.242;20.940;2023-03-24T05:11:02;12.23;;;6.50;;
33593;SDS011;19920;52.242;20.940;2023-03-24T05:13:28;12.32;;;6.75;;
33593;SDS011;19920;52.242;20.940;2023-03-24T05:15:54;15.05;;;6.15;;
33593;SDS011;19920;52.242;20.940;2023-03-24T05:18:20;9.63;;;5.97;;
33593;SDS011;19920;52.242;20.940;2023-03-24T05:20:46;14.48;;;6.35;;
33593;SDS011;19920;52.242;20.940;2023-03-24T05:23:11;12.48;;;6.20;;
33593;SDS011;19920;52.242;20.940;2023-03-24T05:25:37;10.60;;;6.53;;
33593;SDS011;19920;52.242;20.940;2023-03-24T05:28:03;10.77;;;6.63;;
33593;SDS011;19920;52.242;20.940;2023-03-24T05:30:28;15.27;;;6.60;;
33593;SDS011;19920;52.242;20.940;2023-03-24T05:32:54;13.73;;;7.10;;
33593;SDS011;19920;52.242;20.940;2023-03-24T05:35:20;10.05;;;6.78;;
33593;SDS011;19920;52.242;20.940;2023-03-24T05:37:46;13.55;;;7.68;;
33593;SDS011;19920;52.242;20.940;2023-03-24T05:40:12;9.93;;;7.35;;
33593;SDS011;19920;52.242;20.940;2023-03-24T05:42:39;15.02;;;7.68;;
33593;SDS011;19920;52.242;20.940;2023-03-24T05:45:05;13.05;;;7.68;;
33593;SDS011;19920;52.242;20.940;2023-03-24T05:47:31;12.60;;;7.53;;
33593;SDS011;19920;52.242;20.940;2023-03-24T05:49:57;13.73;;;7.80;;
33593;SDS011;19920;52.242;20.940;2023-03-24T05:52:23;16.60;;;8.48;;
33593;SDS011;19920;52.242;20.940;2023-03-24T05:54:48;13.10;;;7.53;;
33593;SDS011;19920;52.242;20.940;2023-03-24T05:57:17;16.92;;;8.68;;
33593;SDS011;19920;52.242;20.940;2023-03-24T05:59:44;15.85;;;9.15;;
33593;SDS011;19920;52.242;20.940;2023-03-24T06:02:10;12.60;;;8.40;;
33593;SDS011;19920;52.242;20.940;2023-03-24T06:04:36;18.92;;;8.98;;
33593;SDS011;19920;52.242;20.940;2023-03-24T06:07:02;15.50;;;8.93;;
33593;SDS011;19920;52.242;20.940;2023-03-24T06:09:29;15.95;;;9.10;;
33593;SDS011;19920;52.242;20.940;2023-03-24T06:12:03;16.63;;;8.93;;
33593;SDS011;19920;52.242;20.940;2023-03-24T06:14:29;14.50;;;9.13;;
33593;SDS011;19920;52.242;20.940;2023-03-24T06:16:55;16.98;;;9.43;;
33593;SDS011;19920;52.242;20.940;2023-03-24T06:19:23;20.02;;;9.32;;
33593;SDS011;19920;52.242;20.940;2023-03-24T06:21:51;15.88;;;9.27;;
33593;SDS011;19920;52.242;20.940;2023-03-24T06:24:19;17.73;;;9.85;;
33593;SDS011;19920;52.242;20.940;2023-03-24T06:26:45;18.50;;;9.75;;
33593;SDS011;19920;52.242;20.940;2023-03-24T06:29:14;17.67;;;9.77;;
33593;SDS011;19920;52.242;20.940;2023-03-24T06:31:42;17.05;;;9.25;;
33593;SDS011;19920;52.242;20.940;2023-03-24T06:34:12;18.42;;;9.93;;
33593;SDS011;19920;52.242;20.940;2023-03-24T06:36:37;18.42;;;9.80;;
33593;SDS011;19920;52.242;20.940;2023-03-24T06:39:04;23.77;;;11.90;;
33593;SDS011;19920;52.242;20.940;2023-03-24T06:41:30;19.02;;;10.55;;
33593;SDS011;19920;52.242;20.940;2023-03-24T06:43:56;18.27;;;10.00;;
33593;SDS011;19920;52.242;20.940;2023-03-24T06:46:22;17.90;;;10.18;;
33593;SDS011;19920;52.242;20.940;2023-03-24T06:48:48;15.60;;;10.38;;
33593;SDS011;19920;52.242;20.940;2023-03-24T06:51:14;20.02;;;9.73;;
33593;SDS011;19920;52.242;20.940;2023-03-24T06:53:40;18.60;;;10.75;;
33593;SDS011;19920;52.242;20.940;2023-03-24T06:56:07;16.40;;;9.90;;
33593;SDS011;19920;52.242;20.940;2023-03-24T06:58:33;18.98;;;10.02;;
33593;SDS011;19920;52.242;20.940;2023-03-24T07:00:59;17.25;;;9.77;;
33593;SDS011;19920;52.242;20.940;2023-03-24T07:03:26;22.27;;;10.18;;
33593;SDS011;19920;52.242;20.940;2023-03-24T07:05:51;19.83;;;10.10;;
33593;SDS011;19920;52.242;20.940;2023-03-24T07:08:17;18.65;;;10.05;;
33593;SDS011;19920;52.242;20.940;2023-03-24T07:10:43;16.83;;;9.25;;
33593;SDS011;19920;52.242;20.940;2023-03-24T07:13:08;19.13;;;10.05;;
33593;SDS011;19920;52.242;20.940;2023-03-24T07:15:34;18.15;;;9.30;;
33593;SDS011;19920;52.242;20.940;2023-03-24T07:18:00;16.70;;;9.45;;
33593;SDS011;19920;52.242;20.940;2023-03-24T07:20:26;15.52;;;9.27;;
33593;SDS011;19920;52.242;20.940;2023-03-24T07:22:55;18.15;;;8.88;;
33593;SDS011;19920;52.242;20.940;2023-03-24T07:25:21;16.35;;;9.63;;
33593;SDS011;19920;52.242;20.940;2023-03-24T07:27:48;12.88;;;8.85;;
33593;SDS011;19920;52.242;20.940;2023-03-24T07:30:17;13.73;;;8.45;;
33593;SDS011;19920;52.242;20.940;2023-03-24T07:32:42;13.73;;;8.15;;
33593;SDS011;19920;52.242;20.940;2023-03-24T07:35:09;12.60;;;8.02;;
33593;SDS011;19920;52.242;20.940;2023-03-24T07:37:36;12.98;;;7.30;;
33593;SDS011;19920;52.242;20.940;2023-03-24T07:40:02;15.68;;;7.25;;
33593;SDS011;19920;52.242;20.940;2023-03-24T07:42:35;11.38;;;6.93;;
33593;SDS011;19920;52.242;20.940;2023-03-24T07:45:02;11.48;;;7.03;;
33593;SDS011;19920;52.242;20.940;2023-03-24T07:47:29;11.93;;;6.93;;
33593;SDS011;19920;52.242;20.940;2023-03-24T07:49:55;13.13;;;6.28;;
33593;SDS011;19920;52.242;20.940;2023-03-24T07:52:21;16.80;;;7.20;;
33593;SDS011;19920;52.242;20.940;2023-03-24T07:54:47;10.98;;;7.05;;
33593;SDS011;19920;52.242;20.940;2023-03-24T07:57:12;15.10;;;6.75;;
33593;SDS011;19920;52.242;20.940;2023-03-24T07:59:38;11.82;;;7.00;;
33593;SDS011;19920;52.242;20.940;2023-03-24T08:02:03;10.85;;;6.85;;
33593;SDS011;19920;52.242;20.940;2023-03-24T08:04:29;11.23;;;7.07;;
33593;SDS011;19920;52.242;20.940;2023-03-24T08:06:56;11.50;;;7.60;;
33593;SDS011;19920;52.242;20.940;2023-03-24T08:09:23;10.32;;;7.22;;
33593;SDS011;19920;52.242;20.940;2023-03-24T08:11:49;8.70;;;6.47;;
33593;SDS011;19920;52.242;20.940;2023-03-24T08:14:15;11.48;;;7.32;;
33593;SDS011;19920;52.242;20.940;2023-03-24T08:16:41;11.18;;;7.80;;
33593;SDS011;19920;52.242;20.940;2023-03-24T08:19:10;12.82;;;6.97;;
33593;SDS011;19920;52.242;20.940;2023-03-24T08:21:35;10.10;;;7.20;;
33593;SDS011;19920;52.242;20.940;2023-03-24T08:24:01;10.15;;;8.38;;
33593;SDS011;19920;52.242;20.940;2023-03-24T08:26:27;11.25;;;8.02;;
33593;SDS011;19920;52.242;20.940;2023-03-24T08:28:53;13.27;;;7.50;;
33593;SDS011;19920;52.242;20.940;2023-03-24T08:31:18;12.15;;;8.02;;
33593;SDS011;19920;52.242;20.940;2023-03-24T08:33:44;14.88;;;8.18;;
33593;SDS011;19920;52.242;20.940;2023-03-24T08:36:10;13.05;;;8.57;;
33593;SDS011;19920;52.242;20.940;2023-03-24T08:38:35;11.95;;;8.23;;
33593;SDS011;19920;52.242;20.940;2023-03-24T08:41:03;12.70;;;8.25;;
33593;SDS011;19920;52.242;20.940;2023-03-24T08:43:31;14.32;;;8.52;;
33593;SDS011;19920;52.242;20.940;2023-03-24T08:45:58;13.57;;;8.30;;
33593;SDS011;19920;52.242;20.940;2023-03-24T08:48:26;14.57;;;8.98;;
33593;SDS011;19920;52.242;20.940;2023-03-24T08:50:53;12.70;;;8.65;;
33593;SDS011;19920;52.242;20.940;2023-03-24T08:53:19;12.68;;;8.55;;
33593;SDS011;19920;52.242;20.940;2023-03-24T08:55:45;15.35;;;8.35;;
33593;SDS011;19920;52.242;20.940;2023-03-24T08:58:15;13.30;;;8.20;;
33593;SDS011;19920;52.242;20.940;2023-03-24T09:00:43;13.90;;;8.50;;
33593;SDS011;19920;52.242;20.940;2023-03-24T09:03:14;12.25;;;7.72;;
33593;SDS011;19920;52.242;20.940;2023-03-24T09:05:42;13.80;;;7.78;;
33593;SDS011;19920;52.242;20.940;2023-03-24T09:08:09;15.18;;;8.45;;
33593;SDS011;19920;52.242;20.940;2023-03-24T09:10:36;13.10;;;7.05;;
33593;SDS011;19920;52.242;20.940;2023-03-24T09:13:03;10.60;;;7.07;;
33593;SDS011;19920;52.242;20.940;2023-03-24T09:15:29;9.18;;;6.65;;
33593;SDS011;19920;52.242;20.940;2023-03-24T09:17:55;11.13;;;6.80;;
33593;SDS011;19920;52.242;20.940;2023-03-24T09:20:20;13.93;;;7.32;;
33593;SDS011;19920;52.242;20.940;2023-03-24T09:22:46;11.63;;;7.15;;
33593;SDS011;19920;52.242;20.940;2023-03-24T09:25:16;11.23;;;6.90;;
33593;SDS011;19920;52.242;20.940;2023-03-24T09:27:43;11.77;;;7.03;;
33593;SDS011;19920;52.242;20.940;2023-03-24T09:30:09;11.57;;;7.15;;
33593;SDS011;19920;52.242;20.940;2023-03-24T09:32:36;11.43;;;7.30;;
33593;SDS011;19920;52.242;20.940;2023-03-24T09:35:02;11.73;;;7.50;;
33593;SDS011;19920;52.242;20.940;2023-03-24T09:37:28;10.93;;;7.28;;
33593;SDS011;19920;52.242;20.940;2023-03-24T09:39:57;13.25;;;8.13;;
33593;SDS011;19920;52.242;20.940;2023-03-24T09:42:25;12.23;;;7.68;;
33593;SDS011;19920;52.242;20.940;2023-03-24T09:44:55;10.60;;;6.80;;
33593;SDS011;19920;52.242;20.940;2023-03-24T09:52:53;9.90;;;6.85;;
33593;SDS011;19920;52.242;20.940;2023-03-24T09:55:24;9.07;;;6.90;;
33593;SDS011;19920;52.242;20.940;2023-03-24T09:57:52;10.10;;;7.37;;
33593;SDS011;19920;52.242;20.940;2023-03-24T10:00:27;11.93;;;7.03;;
33593;SDS011;19920;52.242;20.940;2023-03-24T10:03:01;11.88;;;7.20;;
33593;SDS011;19920;52.242;20.940;2023-03-24T10:06:07;13.07;;;6.75;;
33593;SDS011;19920;52.242;20.940;2023-03-24T10:11:21;12.88;;;7.30;;
33593;SDS011;19920;52.242;20.940;2023-03-24T10:25:17;11.15;;;8.10;;
33593;SDS011;19920;52.242;20.940;2023-03-24T10:28:19;9.77;;;6.97;;
33593;SDS011;19920;52.242;20.940;2023-03-24T10:31:03;9.80;;;7.00;;
33593;SDS011;19920;52.242;20.940;2023-03-24T10:33:34;12.55;;;7.00;;
33593;SDS011;19920;52.242;20.940;2023-03-24T10:36:15;9.05;;;6.20;;
33593;SDS011;19920;52.242;20.940;2023-03-24T10:38:42;11.13;;;6.60;;
33593;SDS011;19920;52.242;20.940;2023-03-24T10:41:15;11.13;;;6.43;;
33593;SDS011;19920;52.242;20.940;2023-03-24T10:43:43;10.02;;;6.35;;
33593;SDS011;19920;52.242;20.940;2023-03-24T10:46:11;13.98;;;7.03;;
33593;SDS011;19920;52.242;20.940;2023-03-24T10:48:43;10.00;;;6.47;;
33593;SDS011;19920;52.242;20.940;2023-03-24T10:51:21;9.43;;;6.60;;
33593;SDS011;19920;52.242;20.940;2023-03-24T10:53:50;11.65;;;6.15;;
33593;SDS011;19920;52.242;20.940;2023-03-24T10:59:21;9.90;;;6.43;;
33593;SDS011;19920;52.242;20.940;2023-03-24T11:04:35;11.20;;;6.60;;
33593;SDS011;19920;52.242;20.940;2023-03-24T11:07:06;12.75;;;5.95;;
33593;SDS011;19920;52.242;20.940;2023-03-24T11:09:45;11.63;;;6.57;;
33593;SDS011;19920;52.242;20.940;2023-03-24T11:12:33;8.18;;;5.93;;
33593;SDS011;19920;52.242;20.940;2023-03-24T11:15:16;9.07;;;5.68;;
33593;SDS011;19920;52.242;20.940;2023-03-24T11:17:44;9.85;;;5.90;;
33593;SDS011;19920;52.242;20.940;2023-03-24T11:20:54;9.20;;;5.70;;
33593;SDS011;19920;52.242;20.940;2023-03-24T11:23:06;8.25;;;5.93;;
33593;SDS011;19920;52.242;20.940;2023-03-24T11:26:01;9.57;;;5.65;;
33593;SDS011;19920;52.242;20.940;2023-03-24T11:28:27;10.80;;;5.50;;
33593;SDS011;19920;52.242;20.940;2023-03-24T11:30:54;8.80;;;5.57;;
33593;SDS011;19920;52.242;20.940;2023-03-24T11:33:21;10.57;;;5.93;;
33593;SDS011;19920;52.242;20.940;2023-03-24T11:35:51;10.57;;;5.63;;
33593;SDS011;19920;52.242;20.940;2023-03-24T11:38:17;8.95;;;5.80;;
33593;SDS011;19920;52.242;20.940;2023-03-24T11:40:53;9.98;;;6.57;;
33593;SDS011;19920;52.242;20.940;2023-03-24T11:43:28;9.40;;;5.90;;
33593;SDS011;19920;52.242;20.940;2023-03-24T11:45:59;11.13;;;6.55;;
33593;SDS011;19920;52.242;20.940;2023-03-24T11:48:34;10.82;;;6.20;;
33593;SDS011;19920;52.242;20.940;2023-03-24T11:51:05;10.55;;;6.70;;
33593;SDS011;19920;52.242;20.940;2023-03-24T11:58:46;10.48;;;5.90;;
33593;SDS011;19920;52.242;20.940;2023-03-24T12:11:45;8.38;;;5.70;;
33593;SDS011;19920;52.242;20.940;2023-03-24T12:14:47;8.38;;;5.80;;
33593;SDS011;19920;52.242;20.940;2023-03-24T12:17:25;7.55;;;4.95;;
33593;SDS011;19920;52.242;20.940;2023-03-24T12:28:12;9.48;;;4.93;;
33593;SDS011;19920;52.242;20.940;2023-03-24T12:37:14;7.35;;;4.05;;
33593;SDS011;19920;52.242;20.940;2023-03-24T12:53:08;5.70;;;3.35;;
33593;SDS011;19920;52.242;20.940;2023-03-24T13:00:57;4.88;;;3.30;;
33593;SDS011;19920;52.242;20.940;2023-03-24T13:03:40;5.13;;;3.22;;
33593;SDS011;19920;52.242;20.940;2023-03-24T13:06:22;5.05;;;3.30;;
33593;SDS011;19920;52.242;20.940;2023-03-24T13:09:04;5.47;;;3.75;;
33593;SDS011;19920;52.242;20.940;2023-03-24T13:11:37;7.80;;;3.40;;
33593;SDS011;19920;52.242;20.940;2023-03-24T13:14:13;4.50;;;3.00;;
33593;SDS011;19920;52.242;20.940;2023-03-24T13:16:43;4.95;;;3.40;;
33593;SDS011;19920;52.242;20.940;2023-03-24T13:19:22;4.25;;;3.42;;
33593;SDS011;19920;52.242;20.940;2023-03-24T13:21:49;5.35;;;3.15;;
33593;SDS011;19920;52.242;20.940;2023-03-24T13:24:18;6.15;;;3.30;;
33593;SDS011;19920;52.242;20.940;2023-03-24T13:37:42;4.22;;;3.13;;
33593;SDS011;19920;52.242;20.940;2023-03-24T13:40:23;5.90;;;3.55;;
33593;SDS011;19920;52.242;20.940;2023-03-24T13:42:55;5.30;;;3.30;;
33593;SDS011;19920;52.242;20.940;2023-03-24T13:47:53;5.55;;;3.05;;
33593;SDS011;19920;52.242;20.940;2023-03-24T13:50:32;6.70;;;2.78;;
33593;SDS011;19920;52.242;20.940;2023-03-24T13:53:23;4.38;;;2.60;;
33593;SDS011;19920;52.242;20.940;2023-03-24T13:55:49;4.72;;;3.03;;
33593;SDS011;19920;52.242;20.940;2023-03-24T14:01:31;5.00;;;2.95;;
33593;SDS011;19920;52.242;20.940;2023-03-24T14:03:42;5.72;;;2.70;;
33593;SDS011;19920;52.242;20.940;2023-03-24T14:06:10;3.70;;;2.50;;
33593;SDS011;19920;52.242;20.940;2023-03-24T14:19:22;4.90;;;2.47;;
33593;SDS011;19920;52.242;20.940;2023-03-24T14:21:58;6.55;;;2.60;;
33593;SDS011;19920;52.242;20.940;2023-03-24T14:24:34;4.80;;;2.90;;
33593;SDS011;19920;52.242;20.940;2023-03-24T14:27:01;3.75;;;2.85;;
33593;SDS011;19920;52.242;20.940;2023-03-24T14:29:54;5.28;;;2.45;;
33593;SDS011;19920;52.242;20.940;2023-03-24T14:32:26;3.85;;;2.55;;
33593;SDS011;19920;52.242;20.940;2023-03-24T14:34:55;3.72;;;2.42;;
33593;SDS011;19920;52.242;20.940;2023-03-24T14:37:23;3.30;;;2.28;;
33593;SDS011;19920;52.242;20.940;2023-03-24T14:39:52;4.35;;;2.40;;
33593;SDS011;19920;52.242;20.940;2023-03-24T14:45:00;3.38;;;2.00;;
33593;SDS011;19920;52.242;20.940;2023-03-24T14:47:36;5.72;;;2.63;;
33593;SDS011;19920;52.242;20.940;2023-03-24T14:50:16;4.70;;;2.55;;
33593;SDS011;19920;52.242;20.940;2023-03-24T14:52:56;4.47;;;2.40;;
33593;SDS011;19920;52.242;20.940;2023-03-24T14:55:24;5.47;;;2.50;;
33593;SDS011;19920;52.242;20.940;2023-03-24T14:57:52;2.67;;;2.28;;
33593;SDS011;19920;52.242;20.940;2023-03-24T15:05:47;3.80;;;2.45;;
33593;SDS011;19920;52.242;20.940;2023-03-24T15:15:59;4.68;;;2.17;;
33593;SDS011;19920;52.242;20.940;2023-03-24T15:18:28;5.47;;;2.22;;
33593;SDS011;19920;52.242;20.940;2023-03-24T15:20:54;3.20;;;2.05;;
33593;SDS011;19920;52.242;20.940;2023-03-24T15:23:25;5.10;;;1.98;;
33593;SDS011;19920;52.242;20.940;2023-03-24T15:25:54;4.03;;;2.30;;
33593;SDS011;19920;52.242;20.940;2023-03-24T15:28:21;4.70;;;1.90;;
33593;SDS011;19920;52.242;20.940;2023-03-24T15:30:51;4.30;;;2.47;;
33593;SDS011;19920;52.242;20.940;2023-03-24T15:33:18;5.63;;;2.50;;
33593;SDS011;19920;52.242;20.940;2023-03-24T15:35:44;4.45;;;2.60;;
33593;SDS011;19920;52.242;20.940;2023-03-24T15:38:16;4.60;;;2.10;;
33593;SDS011;19920;52.242;20.940;2023-03-24T15:41:04;6.65;;;2.30;;
33593;SDS011;19920;52.242;20.940;2023-03-24T15:43:39;5.93;;;2.70;;
33593;SDS011;19920;52.242;20.940;2023-03-24T15:46:16;3.30;;;2.15;;
33593;SDS011;19920;52.242;20.940;2023-03-24T15:48:52;5.75;;;2.60;;
33593;SDS011;19920;52.242;20.940;2023-03-24T15:51:19;6.63;;;2.97;;
33593;SDS011;19920;52.242;20.940;2023-03-24T15:54:21;7.15;;;2.67;;
33593;SDS011;19920;52.242;20.940;2023-03-24T15:57:10;4.88;;;2.45;;
33593;SDS011;19920;52.242;20.940;2023-03-24T15:59:45;4.57;;;2.40;;
33593;SDS011;19920;52.242;20.940;2023-03-24T16:02:22;7.22;;;2.70;;
33593;SDS011;19920;52.242;20.940;2023-03-24T16:04:59;5.03;;;2.70;;
33593;SDS011;19920;52.242;20.940;2023-03-24T16:07:28;4.30;;;2.30;;
33593;SDS011;19920;52.242;20.940;2023-03-24T16:10:03;7.78;;;2.80;;
33593;SDS011;19920;52.242;20.940;2023-03-24T16:12:31;4.13;;;2.60;;
33593;SDS011;19920;52.242;20.940;2023-03-24T16:14:58;4.97;;;2.63;;
33593;SDS011;19920;52.242;20.940;2023-03-24T16:17:23;6.30;;;2.78;;
33593;SDS011;19920;52.242;20.940;2023-03-24T16:19:49;3.70;;;2.65;;
33593;SDS011;19920;52.242;20.940;2023-03-24T16:22:15;3.72;;;2.70;;
33593;SDS011;19920;52.242;20.940;2023-03-24T16:24:40;4.85;;;3.05;;
33593;SDS011;19920;52.242;20.940;2023-03-24T16:27:07;5.50;;;3.08;;
33593;SDS011;19920;52.242;20.940;2023-03-24T16:29:35;4.18;;;3.15;;
33593;SDS011;19920;52.242;20.940;2023-03-24T16:32:00;5.65;;;3.00;;
33593;SDS011;19920;52.242;20.940;2023-03-24T16:34:26;4.75;;;3.58;;
33593;SDS011;19920;52.242;20.940;2023-03-24T16:36:52;4.30;;;3.10;;
33593;SDS011;19920;52.242;20.940;2023-03-24T16:39:19;6.07;;;3.08;;
33593;SDS011;19920;52.242;20.940;2023-03-24T16:41:47;6.35;;;3.63;;
33593;SDS011;19920;52.242;20.940;2023-03-24T16:44:13;6.50;;;3.95;;
33593;SDS011;19920;52.242;20.940;2023-03-24T16:46:39;6.88;;;3.60;;
33593;SDS011;19920;52.242;20.940;2023-03-24T16:49:05;10.07;;;4.57;;
33593;SDS011;19920;52.242;20.940;2023-03-24T16:51:32;5.20;;;3.85;;
33593;SDS011;19920;52.242;20.940;2023-03-24T16:53:58;8.88;;;5.78;;
33593;SDS011;19920;52.242;20.940;2023-03-24T16:56:24;7.68;;;5.43;;
33593;SDS011;19920;52.242;20.940;2023-03-24T16:58:50;7.38;;;4.82;;
33593;SDS011;19920;52.242;20.940;2023-03-24T17:06:28;7.10;;;5.63;;
33593;SDS011;19920;52.242;20.940;2023-03-24T17:08:55;10.05;;;5.88;;
33593;SDS011;19920;52.242;20.940;2023-03-24T17:11:25;9.55;;;6.53;;
33593;SDS011;19920;52.242;20.940;2023-03-24T17:13:51;13.90;;;8.07;;
33593;SDS011;19920;52.242;20.940;2023-03-24T17:16:18;15.15;;;8.88;;
33593;SDS011;19920;52.242;20.940;2023-03-24T17:18:44;12.75;;;8.68;;
33593;SDS011;19920;52.242;20.940;2023-03-24T17:21:11;11.05;;;8.13;;
33593;SDS011;19920;52.242;20.940;2023-03-24T17:23:39;11.65;;;8.65;;
33593;SDS011;19920;52.242;20.940;2023-03-24T17:26:06;13.07;;;8.30;;
33593;SDS011;19920;52.242;20.940;2023-03-24T17:28:31;15.15;;;9.50;;
33593;SDS011;19920;52.242;20.940;2023-03-24T17:30:57;13.63;;;9.45;;
33593;SDS011;19920;52.242;20.940;2023-03-24T17:33:23;12.30;;;9.23;;